パース の空港の天気 - METARとTAF

パース空港 ( YPPH / PER ) - オーストラリア 西オーストラリア州パース
飛行場実況気象(Metar)
観測時間09/25 09:30 AWST (09/25 01:30 UTC)
風向・風速西南西 2m/s
視程10km以上
天気現象
少しの雲 雲底高度 670m
全天の4割程度の雲 雲底高度 1280m
気温17℃
湿度77%
気圧1022hPa
METARYPPH 250130Z 25003KT 9999 FEW022 SCT042 17/13 Q1022 FM0230 22008KT 9999 SCT035
過去の天気等 Google飛行場航空写真 Wunderground天気予報

過去48時間のMETAR

飛行場予報(TAF)
発表時間: 9/25 07:53 AWST (9/24 23:53 UTC)
予報対象時間: 25日8時 AWST ~ 26日14時 AWST
風向・風速北 3m/s
視程10km以上
天気現象弱いしゅう雨
全天の4割程度の雲 雲底高度 240m
全天の8割程度の雲 雲底高度 760m
25日10時 AWST から
風向・風速南西 6m/s
視程10km以上
全天の4割程度の雲 雲底高度 1070m
25日20時 AWST から
風向・風速南 3m/s
視程10km以上
なし
26日13時 AWST から
風向・風速南南西 6m/s
視程10km以上
なし
TAF AMD YPPH 242353Z 2500/2606 01005KT 9999 -SHRA SCT008 BKN025
FM250200 22012KT 9999 SCT035
FM251200 19005KT CAVOK
FM260500 21012KT CAVOK INTER 2500/2501 4000 SHRA SCT008 BKN015